createdAt,value
2023-04-18T00:01:27.348Z,11.25
2023-04-18T00:03:54.868Z,11.26
2023-04-18T00:06:22.977Z,11.25
2023-04-18T00:08:50.535Z,11.19
2023-04-18T00:11:18.299Z,11.14
2023-04-18T00:13:47.640Z,11.10
2023-04-18T00:16:15.292Z,11.06
2023-04-18T00:18:43.329Z,11.05
2023-04-18T00:21:11.676Z,11.06
2023-04-18T00:23:40.094Z,11.10
2023-04-18T00:26:07.964Z,11.14
2023-04-18T00:28:35.620Z,11.19
2023-04-18T00:31:04.068Z,11.19
2023-04-18T00:33:34.740Z,11.15
2023-04-18T00:36:02.409Z,11.10
2023-04-18T00:38:30.063Z,11.06
2023-04-18T00:40:58.028Z,11.01
2023-04-18T00:43:25.791Z,10.96
2023-04-18T00:45:53.704Z,10.94
2023-04-18T00:48:21.674Z,10.93
2023-04-18T00:50:49.799Z,10.87
2023-04-18T00:53:17.711Z,10.85
2023-04-18T00:55:45.537Z,10.80
2023-04-18T00:58:13.205Z,10.76
2023-04-18T01:00:43.106Z,10.74
2023-04-18T01:03:15.016Z,10.74
2023-04-18T01:05:42.834Z,10.75
2023-04-18T01:08:11.218Z,10.74
2023-04-18T01:10:38.865Z,10.74
2023-04-18T01:13:17.396Z,10.77
2023-04-18T01:15:47.736Z,10.80
2023-04-18T01:18:17.340Z,10.84
2023-04-18T01:20:51.626Z,10.90
2023-04-18T01:23:21.849Z,10.91
2023-04-18T01:25:49.734Z,10.91
2023-04-18T01:28:21.885Z,10.91
2023-04-18T01:30:49.855Z,10.89
2023-04-18T01:33:17.528Z,10.87
2023-04-18T01:35:47.887Z,10.84
2023-04-18T01:38:15.814Z,10.78
2023-04-18T01:40:43.891Z,10.75
2023-04-18T01:43:11.944Z,10.75
2023-04-18T01:45:39.605Z,10.76
2023-04-18T01:48:09.629Z,10.79
2023-04-18T01:50:37.489Z,10.80
2023-04-18T01:53:05.260Z,10.80
2023-04-18T01:55:33.119Z,10.81
2023-04-18T01:58:00.686Z,10.79
2023-04-18T02:00:28.687Z,10.77
2023-04-18T02:02:58.765Z,10.75
2023-04-18T02:05:27.773Z,10.75
2023-04-18T02:07:55.425Z,10.73
2023-04-18T02:10:23.592Z,10.67
2023-04-18T02:12:51.458Z,10.62
2023-04-18T02:15:19.438Z,10.60
2023-04-18T02:17:47.202Z,10.73
2023-04-18T02:20:16.291Z,10.81
2023-04-18T02:22:44.565Z,10.86
2023-04-18T02:25:12.343Z,10.83
2023-04-18T02:27:40.401Z,10.78
2023-04-18T02:30:08.269Z,10.79
2023-04-18T02:32:36.551Z,10.82
2023-04-18T02:35:04.532Z,10.81
2023-04-18T02:37:32.176Z,10.78
2023-04-18T02:39:59.933Z,10.73
2023-04-18T02:42:31.185Z,10.80
2023-04-18T02:44:58.847Z,10.79
2023-04-18T02:47:27.154Z,10.78
2023-04-18T02:49:54.982Z,10.76
2023-04-18T02:52:23.051Z,10.78
2023-04-18T02:54:50.815Z,10.81
2023-04-18T02:57:23.803Z,10.84
2023-04-18T03:00:14.219Z,10.84
2023-04-18T03:03:00.891Z,10.82
2023-04-18T03:05:41.574Z,10.76
2023-04-18T03:08:09.541Z,10.75
2023-04-18T03:10:39.247Z,10.74
2023-04-18T03:13:07.640Z,10.71
2023-04-18T03:15:38.302Z,10.67
2023-04-18T03:18:10.219Z,10.62
2023-04-18T03:20:41.260Z,10.61
2023-04-18T03:23:09.493Z,10.57
2023-04-18T03:25:36.888Z,10.55
2023-04-18T03:28:05.984Z,10.56
2023-04-18T03:30:35.188Z,10.59
2023-04-18T03:33:05.709Z,10.60
2023-04-18T03:35:34.193Z,10.70
2023-04-18T03:38:01.858Z,10.71
2023-04-18T03:40:34.431Z,10.70
2023-04-18T03:43:08.748Z,10.70
2023-04-18T03:45:37.436Z,10.66
2023-04-18T03:48:06.540Z,10.64
2023-04-18T03:50:38.181Z,10.61
2023-04-18T03:53:09.839Z,10.59
2023-04-18T03:55:40.066Z,10.55
2023-04-18T03:58:09.565Z,10.52
2023-04-18T04:00:37.544Z,10.47
2023-04-18T04:03:09.284Z,10.48
2023-04-18T04:05:37.466Z,10.50
2023-04-18T04:08:05.839Z,10.49
2023-04-18T04:10:48.251Z,10.50
2023-04-18T04:13:16.631Z,10.50
2023-04-18T04:15:44.801Z,10.52
2023-04-18T04:18:13.083Z,10.53
2023-04-18T04:20:44.530Z,10.50
2023-04-18T04:23:16.705Z,10.47
2023-04-18T04:25:46.816Z,10.48
2023-04-18T04:28:33.114Z,10.50
2023-04-18T04:31:07.332Z,10.57
2023-04-18T04:33:36.525Z,10.61
2023-04-18T04:36:09.311Z,10.64
2023-04-18T04:38:41.058Z,10.69
2023-04-18T04:41:09.644Z,10.76
2023-04-18T04:43:38.550Z,10.96
2023-04-18T04:46:08.010Z,11.23
2023-04-18T04:48:35.608Z,11.53
2023-04-18T04:51:05.821Z,12.29
2023-04-18T04:53:33.683Z,12.78
2023-04-18T04:56:05.152Z,13.27
2023-04-18T04:58:34.437Z,14.55
2023-04-18T05:01:11.221Z,16.04
2023-04-18T05:03:40.120Z,17.40
2023-04-18T05:06:08.068Z,18.54
2023-04-18T05:08:35.628Z,19.82
2023-04-18T05:11:04.514Z,20.81
2023-04-18T05:13:32.290Z,21.81
2023-04-18T05:16:00.170Z,22.33
2023-04-18T05:18:27.706Z,22.49
2023-04-18T05:20:56.391Z,22.91
2023-04-18T05:23:23.862Z,23.64
2023-04-18T05:25:51.809Z,23.99
2023-04-18T05:28:19.169Z,24.01
2023-04-18T05:30:47.465Z,24.19
2023-04-18T05:33:15.419Z,24.64
2023-04-18T05:35:43.584Z,23.64
2023-04-18T05:38:11.151Z,22.77
2023-04-18T05:40:45.569Z,23.15
2023-04-18T05:43:13.229Z,23.52
2023-04-18T05:45:41.406Z,23.82
2023-04-18T05:48:08.861Z,24.52
2023-04-18T05:50:37.752Z,25.11
2023-04-18T05:53:05.723Z,25.96
2023-04-18T05:55:34.815Z,26.37
2023-04-18T05:58:03.184Z,26.33
2023-04-18T06:00:31.053Z,26.99
2023-04-18T06:02:58.899Z,27.18
2023-04-18T06:05:26.894Z,27.40
2023-04-18T06:07:54.960Z,27.77
2023-04-18T06:10:23.131Z,27.73
2023-04-18T06:12:50.999Z,26.70
2023-04-18T06:15:18.868Z,26.54
2023-04-18T06:17:46.682Z,25.91
2023-04-18T06:20:14.391Z,25.18
2023-04-18T06:22:42.162Z,25.20
2023-04-18T06:25:10.341Z,24.85
2023-04-18T06:27:38.927Z,24.32
2023-04-18T06:30:08.416Z,25.49
2023-04-18T06:32:36.532Z,25.37
2023-04-18T06:35:05.482Z,25.30
2023-04-18T06:37:33.549Z,24.94
2023-04-18T06:40:01.330Z,23.56
2023-04-18T06:42:29.080Z,24.36
2023-04-18T06:44:57.051Z,24.20
2023-04-18T06:47:25.075Z,24.61
2023-04-18T06:49:53.191Z,24.69
2023-04-18T06:52:20.957Z,24.22
2023-04-18T06:54:48.523Z,24.93
2023-04-18T06:57:16.793Z,24.55
2023-04-18T06:59:44.677Z,24.62
2023-04-18T07:02:12.774Z,25.01
2023-04-18T07:04:41.436Z,25.61
2023-04-18T07:07:09.272Z,26.16
2023-04-18T07:09:36.948Z,26.13
2023-04-18T07:12:04.809Z,25.99
2023-04-18T07:14:34.094Z,26.00
2023-04-18T07:17:02.338Z,24.08
2023-04-18T07:19:30.138Z,24.84
2023-04-18T07:21:57.807Z,24.40
2023-04-18T07:24:25.664Z,24.05
2023-04-18T07:26:55.058Z,25.02
2023-04-18T07:29:23.137Z,25.00
2023-04-18T07:31:50.805Z,25.03
2023-04-18T07:34:18.260Z,24.88
2023-04-18T07:36:45.917Z,25.15
2023-04-18T07:39:13.922Z,25.25
2023-04-18T07:41:41.756Z,25.16
2023-04-18T07:44:09.426Z,24.11
2023-04-18T07:46:37.102Z,24.85
2023-04-18T07:49:05.151Z,25.57
2023-04-18T07:51:33.125Z,25.61
2023-04-18T07:54:01.610Z,25.32
2023-04-18T07:56:29.565Z,25.15
2023-04-18T07:58:57.125Z,24.95
2023-04-18T08:01:27.454Z,24.78
2023-04-18T08:03:56.793Z,24.35
2023-04-18T08:06:24.102Z,22.94
2023-04-18T08:08:51.385Z,22.90
2023-04-18T08:11:18.441Z,23.80
2023-04-18T08:13:45.544Z,23.97
2023-04-18T08:16:14.257Z,24.53
2023-04-18T08:18:43.517Z,24.08
2023-04-18T08:21:10.663Z,23.83
2023-04-18T08:23:37.821Z,23.94
2023-04-18T08:26:04.957Z,23.90
2023-04-18T08:28:31.999Z,23.45
2023-04-18T08:30:59.117Z,22.91
2023-04-18T08:33:26.605Z,23.31
2023-04-18T08:35:53.665Z,23.10
2023-04-18T08:38:20.877Z,22.86
2023-04-18T08:40:52.737Z,22.23
2023-04-18T08:43:20.029Z,21.44
2023-04-18T08:45:50.218Z,20.97
2023-04-18T08:48:18.590Z,20.45
2023-04-18T08:50:46.278Z,20.04
2023-04-18T08:53:13.940Z,20.09
2023-04-18T08:55:42.154Z,19.95
2023-04-18T08:58:09.310Z,19.29
2023-04-18T09:00:37.762Z,19.11
2023-04-18T09:03:05.439Z,19.11
2023-04-18T09:05:32.958Z,19.06
2023-04-18T09:08:20.067Z,18.95
2023-04-18T09:10:47.357Z,19.08
2023-04-18T09:13:14.451Z,18.68
2023-04-18T09:15:45.824Z,18.44
2023-04-18T09:18:14.497Z,18.34
2023-04-18T09:20:42.531Z,18.27
2023-04-18T09:23:24.346Z,18.35
2023-04-18T09:25:52.528Z,18.36
2023-04-18T09:28:33.880Z,18.59
2023-04-18T09:31:12.329Z,18.75
2023-04-18T09:33:45.015Z,18.86
2023-04-18T09:36:27.881Z,18.74
2023-04-18T09:38:57.002Z,18.95
2023-04-18T09:41:24.658Z,18.83
2023-04-18T09:44:14.038Z,18.64
2023-04-18T09:46:44.540Z,18.68
2023-04-18T09:49:13.578Z,18.50
2023-04-18T09:51:43.371Z,18.25
2023-04-18T09:54:17.318Z,18.19
2023-04-18T09:56:46.478Z,17.99
2023-04-18T09:59:21.090Z,17.94
2023-04-18T10:01:49.908Z,17.87
2023-04-18T10:04:18.589Z,17.80
2023-04-18T10:06:47.721Z,17.77
2023-04-18T10:09:17.603Z,17.80
2023-04-18T10:11:45.420Z,17.81
2023-04-18T10:14:16.268Z,17.97
2023-04-18T10:16:49.961Z,18.39
2023-04-18T10:19:25.047Z,18.30
2023-04-18T10:21:54.288Z,18.41
2023-04-18T10:24:53.885Z,18.60
2023-04-18T10:27:49.095Z,18.47
2023-04-18T10:30:18.001Z,18.25
2023-04-18T10:32:49.067Z,18.30
2023-04-18T10:35:21.510Z,18.32
2023-04-18T10:37:52.970Z,18.74
2023-04-18T10:40:36.400Z,18.78
2023-04-18T10:43:04.115Z,18.80
2023-04-18T10:45:36.528Z,18.82
2023-04-18T10:48:41.077Z,19.02
2023-04-18T10:51:18.690Z,19.10
2023-04-18T10:53:52.540Z,18.88
2023-04-18T10:56:19.881Z,18.96
2023-04-18T10:58:51.716Z,18.88
2023-04-18T11:01:32.682Z,18.91
2023-04-18T11:04:00.758Z,19.11
2023-04-18T11:06:28.584Z,19.05
2023-04-18T11:09:12.365Z,19.38
2023-04-18T11:11:40.214Z,19.29
2023-04-18T11:14:07.290Z,18.79
2023-04-18T11:16:35.172Z,18.70
2023-04-18T11:19:19.939Z,18.37
2023-04-18T11:21:47.204Z,18.65
2023-04-18T11:24:22.193Z,18.63
2023-04-18T11:26:49.321Z,18.53
2023-04-18T11:29:18.405Z,18.36
2023-04-18T11:31:57.761Z,18.33
2023-04-18T11:34:33.050Z,18.55
2023-04-18T11:37:00.603Z,18.19
2023-04-18T11:39:27.850Z,18.30
2023-04-18T11:41:57.398Z,18.46
2023-04-18T11:44:25.711Z,18.59
2023-04-18T11:46:53.724Z,18.01
2023-04-18T11:49:28.183Z,17.63
2023-04-18T11:51:55.539Z,17.44
2023-04-18T11:54:45.817Z,17.53
2023-04-18T11:57:23.407Z,17.82
2023-04-18T12:00:00.030Z,17.82
2023-04-18T12:02:51.601Z,17.92
2023-04-18T12:05:31.400Z,17.88
2023-04-18T12:08:14.070Z,17.68
2023-04-18T12:10:52.049Z,17.67
2023-04-18T12:13:24.078Z,17.61
2023-04-18T12:15:51.517Z,17.65
2023-04-18T12:18:22.082Z,17.96
2023-04-18T12:20:52.518Z,18.24
2023-04-18T12:23:32.372Z,18.21
2023-04-18T12:26:04.652Z,17.84
2023-04-18T12:28:33.062Z,17.35
2023-04-18T12:31:00.218Z,17.46
2023-04-18T12:33:27.521Z,17.75
2023-04-18T12:35:54.652Z,17.61
2023-04-18T12:38:23.637Z,17.63
2023-04-18T12:40:52.045Z,17.85
2023-04-18T12:43:19.801Z,17.70
2023-04-18T12:45:47.517Z,17.78
2023-04-18T12:48:14.922Z,17.48
2023-04-18T12:50:42.052Z,17.24
2023-04-18T12:53:09.105Z,16.93
2023-04-18T12:55:36.616Z,16.83
2023-04-18T12:58:04.402Z,16.88
2023-04-18T13:00:33.046Z,16.75
2023-04-18T13:03:00.990Z,16.68
2023-04-18T13:05:32.986Z,16.74
2023-04-18T13:10:32.113Z,16.78
2023-04-18T13:13:00.684Z,16.67
2023-04-18T13:15:28.045Z,16.56
2023-04-18T13:18:06.077Z,16.50
2023-04-18T13:20:35.101Z,16.30
2023-04-18T13:23:06.300Z,16.26
2023-04-18T13:25:33.612Z,16.34
2023-04-18T13:28:01.154Z,16.39
2023-04-18T13:30:28.688Z,16.24
2023-04-18T13:32:56.983Z,15.78
2023-04-18T13:35:24.051Z,15.27
2023-04-18T13:37:51.216Z,15.02
2023-04-18T13:40:18.546Z,14.86
2023-04-18T13:42:45.671Z,14.82
2023-04-18T13:45:13.090Z,14.85
2023-04-18T13:47:40.398Z,15.02
2023-04-18T13:50:08.189Z,15.11
2023-04-18T13:52:35.584Z,15.08
2023-04-18T13:55:02.633Z,15.00
2023-04-18T13:57:32.258Z,14.91
2023-04-18T13:59:59.375Z,14.89
2023-04-18T14:02:26.707Z,14.92
2023-04-18T14:04:55.031Z,14.91
2023-04-18T14:07:22.221Z,14.92
2023-04-18T14:09:49.318Z,14.90
2023-04-18T14:12:16.449Z,14.93
2023-04-18T14:14:43.579Z,14.90
2023-04-18T14:17:10.734Z,14.88
2023-04-18T14:19:37.726Z,14.92
2023-04-18T14:22:04.802Z,14.89
2023-04-18T14:24:31.879Z,14.86
2023-04-18T14:26:59.032Z,14.87
2023-04-18T14:29:26.011Z,14.87
2023-04-18T14:31:53.125Z,14.92
2023-04-18T14:34:23.050Z,14.93
2023-04-18T14:36:50.195Z,15.01
2023-04-18T14:39:17.375Z,15.08
2023-04-18T14:41:45.993Z,15.14
2023-04-18T14:47:16.096Z,15.26
2023-04-18T14:49:43.201Z,15.33
2023-04-18T14:52:10.163Z,15.33
2023-04-18T14:54:37.157Z,15.38
2023-04-18T14:57:04.305Z,15.46
2023-04-18T14:59:31.645Z,15.60
2023-04-18T15:01:58.825Z,15.86
2023-04-18T15:04:26.042Z,16.10
2023-04-18T15:06:53.462Z,16.28
2023-04-18T15:09:21.038Z,16.42
2023-04-18T15:11:48.269Z,16.66
2023-04-18T15:14:16.356Z,16.80
2023-04-18T15:16:44.035Z,16.83
2023-04-18T15:19:11.850Z,16.72
2023-04-18T15:21:38.980Z,16.83
2023-04-18T15:24:06.420Z,16.84
2023-04-18T15:26:34.049Z,16.68
2023-04-18T15:29:05.155Z,16.67
2023-04-18T15:31:32.968Z,16.68
2023-04-18T15:34:00.532Z,16.58
2023-04-18T15:36:28.288Z,16.56
2023-04-18T15:38:55.534Z,16.55
2023-04-18T15:41:22.694Z,16.59
2023-04-18T15:43:49.815Z,16.65
2023-04-18T15:46:16.896Z,16.78
2023-04-18T15:48:45.570Z,16.84
2023-04-18T15:51:12.927Z,16.90
2023-04-18T15:53:40.251Z,16.88
2023-04-18T15:56:07.253Z,17.01
2023-04-18T15:58:34.509Z,17.13
2023-04-18T16:01:02.368Z,17.19
2023-04-18T16:03:30.274Z,17.09
2023-04-18T16:05:57.561Z,16.95
2023-04-18T16:08:24.761Z,16.97
2023-04-18T16:10:53.374Z,17.05
2023-04-18T16:13:21.030Z,17.03
2023-04-18T16:15:48.343Z,17.04
2023-04-18T16:18:15.729Z,16.82
2023-04-18T16:20:42.923Z,16.76
2023-04-18T16:23:10.944Z,16.78
2023-04-18T16:25:38.125Z,16.77
2023-04-18T16:28:05.295Z,16.75
2023-04-18T16:30:32.672Z,16.68
2023-04-18T16:33:01.294Z,16.62
2023-04-18T16:35:28.961Z,16.63
2023-04-18T16:37:56.026Z,16.64
2023-04-18T16:40:23.507Z,16.67
2023-04-18T16:42:52.887Z,16.58
2023-04-18T16:45:20.121Z,16.40
2023-04-18T16:47:47.202Z,16.14
2023-04-18T16:50:14.332Z,15.85
2023-04-18T16:52:42.632Z,15.68
2023-04-18T16:55:10.158Z,15.59
2023-04-18T16:57:37.709Z,15.58
2023-04-18T17:00:05.445Z,15.56
2023-04-18T17:02:32.772Z,15.59
2023-04-18T17:05:00.456Z,15.60
2023-04-18T17:07:27.752Z,15.58
2023-04-18T17:09:54.723Z,15.57
2023-04-18T17:12:22.520Z,15.54
2023-04-18T17:14:49.622Z,15.57
2023-04-18T17:17:18.734Z,15.59
2023-04-18T17:19:46.608Z,15.56
2023-04-18T17:22:13.590Z,15.54
2023-04-18T17:24:40.838Z,15.49
2023-04-18T17:27:07.900Z,15.46
2023-04-18T17:29:35.148Z,15.46
2023-04-18T17:32:02.440Z,15.42
2023-04-18T17:34:29.699Z,15.36
2023-04-18T17:36:57.044Z,15.39
2023-04-18T17:39:24.113Z,15.32
2023-04-18T17:41:51.289Z,15.32
2023-04-18T17:44:18.371Z,15.28
2023-04-18T17:46:45.602Z,15.24
2023-04-18T17:49:12.859Z,15.20
2023-04-18T17:51:40.466Z,15.18
2023-04-18T17:54:08.356Z,15.16
2023-04-18T17:56:35.804Z,15.15
2023-04-18T17:59:03.234Z,15.11
2023-04-18T18:01:30.675Z,15.09
2023-04-18T18:03:59.080Z,15.10
2023-04-18T18:06:27.915Z,15.08
2023-04-18T18:08:55.085Z,15.10
2023-04-18T18:11:23.232Z,15.06
2023-04-18T18:13:54.681Z,15.06
2023-04-18T18:16:24.952Z,15.04
2023-04-18T18:18:52.293Z,14.98
2023-04-18T18:21:19.723Z,14.91
2023-04-18T18:23:46.976Z,14.84
2023-04-18T18:26:14.022Z,14.82
2023-04-18T18:28:41.197Z,14.80
2023-04-18T18:31:08.229Z,14.74
2023-04-18T18:33:35.529Z,14.71
2023-04-18T18:36:02.814Z,14.66
2023-04-18T18:38:29.897Z,14.66
2023-04-18T18:40:57.110Z,14.60
2023-04-18T18:43:26.416Z,14.57
2023-04-18T18:45:53.654Z,14.52
2023-04-18T18:48:20.797Z,14.46
2023-04-18T18:50:48.170Z,14.41
2023-04-18T18:53:18.058Z,14.37
2023-04-18T18:55:45.775Z,14.30
2023-04-18T18:58:12.803Z,14.26
2023-04-18T19:00:40.117Z,14.21
2023-04-18T19:03:08.449Z,14.19
2023-04-18T19:05:35.910Z,14.15
2023-04-18T19:08:05.034Z,14.13
2023-04-18T19:10:32.256Z,14.10
2023-04-18T19:13:00.497Z,14.10
2023-04-18T19:15:30.855Z,14.09
2023-04-18T19:17:58.105Z,14.04
2023-04-18T19:20:26.582Z,14.00
2023-04-18T19:22:54.546Z,13.98
2023-04-18T19:25:22.124Z,13.92
2023-04-18T19:27:49.150Z,13.89
2023-04-18T19:30:16.304Z,13.84
2023-04-18T19:32:43.437Z,13.83
2023-04-18T19:35:13.310Z,13.77
2023-04-18T19:37:40.604Z,13.75
2023-04-18T19:40:08.225Z,13.71
2023-04-18T19:42:35.344Z,13.68
2023-04-18T19:45:02.545Z,13.68
2023-04-18T19:47:33.893Z,13.69
2023-04-18T19:50:01.663Z,13.68
2023-04-18T19:52:29.751Z,13.69
2023-04-18T19:54:56.907Z,13.72
2023-04-18T19:57:25.772Z,13.73
2023-04-18T19:59:52.986Z,13.70
2023-04-18T20:02:20.468Z,13.70
2023-04-18T20:04:50.048Z,13.70
2023-04-18T20:07:17.261Z,13.67
2023-04-18T20:09:44.468Z,13.68
2023-04-18T20:12:11.548Z,13.72
2023-04-18T20:14:38.734Z,13.76
2023-04-18T20:17:05.813Z,13.78
2023-04-18T20:19:32.938Z,13.75
2023-04-18T20:22:00.140Z,13.73
2023-04-18T20:24:28.332Z,13.73
2023-04-18T20:26:55.517Z,13.72
2023-04-18T20:29:22.689Z,13.70
2023-04-18T20:31:49.845Z,13.69
2023-04-18T20:34:17.283Z,13.69
2023-04-18T20:36:45.108Z,13.68
2023-04-18T20:39:13.315Z,13.64
2023-04-18T20:41:46.620Z,13.61
2023-04-18T20:44:14.295Z,13.54
2023-04-18T20:46:42.083Z,13.50
2023-04-18T20:49:10.028Z,13.49
2023-04-18T20:51:38.268Z,13.50
2023-04-18T20:54:05.818Z,13.45
2023-04-18T20:56:33.937Z,13.41
2023-04-18T20:59:01.060Z,13.36
2023-04-18T21:01:28.316Z,13.30
2023-04-18T21:03:55.628Z,13.30
2023-04-18T21:06:23.022Z,13.28
2023-04-18T21:08:50.050Z,13.27
2023-04-18T21:11:17.192Z,13.26
2023-04-18T21:13:44.204Z,13.23
2023-04-18T21:16:11.490Z,13.19
2023-04-18T21:18:38.570Z,13.18
2023-04-18T21:21:05.867Z,13.15
2023-04-18T21:23:32.962Z,13.13
2023-04-18T21:26:00.184Z,13.12
2023-04-18T21:28:27.343Z,13.12
2023-04-18T21:30:54.414Z,13.10
2023-04-18T21:33:21.457Z,13.12
2023-04-18T21:35:48.694Z,13.11
2023-04-18T21:38:15.926Z,13.06
2023-04-18T21:40:43.006Z,13.04
2023-04-18T21:43:10.145Z,13.04
2023-04-18T21:45:37.384Z,13.03
2023-04-18T21:48:04.863Z,13.05
2023-04-18T21:50:31.985Z,13.00
2023-04-18T21:52:59.102Z,12.97
2023-04-18T21:55:26.109Z,12.98
2023-04-18T21:57:54.410Z,13.00
2023-04-18T22:00:21.511Z,13.00
2023-04-18T22:02:48.715Z,12.93
2023-04-18T22:05:16.425Z,12.92
2023-04-18T22:07:54.873Z,12.93
2023-04-18T22:10:25.389Z,12.91
2023-04-18T22:12:56.142Z,12.90
2023-04-18T22:15:40.044Z,12.85
2023-04-18T22:18:09.111Z,12.84
2023-04-18T22:20:36.191Z,12.81
2023-04-18T22:23:04.521Z,12.78
2023-04-18T22:25:31.542Z,12.69
2023-04-18T22:27:58.680Z,12.71
2023-04-18T22:30:26.013Z,12.69
2023-04-18T22:32:53.262Z,12.65
2023-04-18T22:35:20.660Z,12.62
2023-04-18T22:37:47.882Z,12.59
2023-04-18T22:40:16.537Z,12.65
2023-04-18T22:42:43.746Z,12.62
2023-04-18T22:45:11.006Z,12.59
2023-04-18T22:47:38.270Z,12.54
2023-04-18T22:50:06.377Z,12.49
2023-04-18T22:52:34.120Z,12.55
2023-04-18T22:55:02.669Z,12.57
2023-04-18T22:57:29.847Z,12.58
2023-04-18T22:59:56.928Z,12.60
2023-04-18T23:02:24.788Z,12.61
2023-04-18T23:04:53.454Z,12.59
2023-04-18T23:07:20.605Z,12.61
2023-04-18T23:09:47.612Z,12.57
2023-04-18T23:12:14.752Z,12.55
2023-04-18T23:14:41.887Z,12.53
2023-04-18T23:17:08.977Z,12.56
2023-04-18T23:19:36.221Z,12.54
2023-04-18T23:22:03.272Z,12.50
2023-04-18T23:24:31.401Z,12.43
2023-04-18T23:26:58.604Z,12.39
2023-04-18T23:29:25.696Z,12.40
2023-04-18T23:31:52.893Z,12.46
2023-04-18T23:34:19.942Z,12.47
2023-04-18T23:36:47.376Z,12.46
2023-04-18T23:39:14.450Z,12.48
2023-04-18T23:41:41.497Z,12.50
2023-04-18T23:44:08.606Z,12.46
2023-04-18T23:46:36.679Z,12.46
2023-04-18T23:49:04.039Z,12.46
2023-04-18T23:51:31.257Z,12.41
2023-04-18T23:53:58.408Z,12.43
2023-04-18T23:56:25.438Z,12.48
2023-04-18T23:58:53.991Z,12.56
